Terminal Aerodrome Forecast
Issued by NWS Atlanta, GA

Home | Current Version | Previous Version | Text Only | Print | Product List | Glossary On
Versions: 1 2 3 4 5 6 7 8 9 10 11 12 13 14
025
FTUS42 KFFC 141735
TAFMCN
TAF
KMCN 141735Z 1418/1518 11007KT P6SM SCT080
     FM150200 10006KT P6SM BKN035
     FM150500 10006KT P6SM BKN015
     FM151200 10003KT P6SM OVC007
     FM151500 13004KT 3SM BR OVC004=

USA.gov is the U.S. government's official web portal to all federal, state and local government web resources and services.